Ballina, New South Wales

1:32 PM AEST on August 28, 2016 (GMT +1000)
East Ballina AU | | Change Station

Elev 102 ft 28.87 °S, 153.59 °E | Updated 60 seconds ago

Clear
Clear
66.6 °F
Feels Like 66.6 °F
N
8.0
Wind Variable Wind from ESE
Gusts 10.0 mph

Today
High -- | Low -- °F
--% Chance of Precip.
Yesterday
High -- | Low -- °F
Precip. -- in
Pressure 30.15 in
Visibility 6.2 miles
Clouds
Dew Point 51 °F
Humidity 57%
Rainfall 0.00 in
Snow Depth Not available.
6:04 AM 5:29 PM
Waning Crescent, 19% visible
METAR YLIS 280300Z AUTO 19005KT 130V250 9999 // NCD 22/08 Q1021
Pressure 30.15 in
Visibility 6.2 miles
Clouds
Dew Point 51 °F
Humidity 57%
Rainfall 0.00 in
Snow Depth Not available.
6:04 AM 5:29 PM
Waning Crescent, 19% visible
METAR YLIS 280300Z AUTO 19005KT 130V250 9999 // NCD 22/08 Q1021

10-Day Weather Forecast

Almanac

Astronomy

Aug. 28, 2016 Rise Set
Actual Time
Civil Twilight
Nautical Twilight
Astronomical Twilight
Moon
Length of Visible Light
Length of Day
Tomorrow will be .
, % of the Moon is Illuminated

Today's Extremes

Country Highs Country Lows

Community

WunderPhotos

Upload Photos

1,935,519 photos uploaded!

WunderBlog® & News

Nearby

Air Quality

  Air Quality AQ Index Pollutant
Not available.

Snow Depth

Station Depth Elevation

Earthquake Activity

City Distance Mag. Time & Date
Minimum magnitude displayed is 2.5.

Coastal Water Temperatures

Place Temperature

Stations

Nearby Weather Stations

Station Location Temp. Windchill Dew Point Humidity Wind Precip. Elev Updated Type